Time;durP1;ratioP1;P1;durP2;ratioP2;P2;SDS_P1;SDS_P2;PMS_P1;PMS_P2;Temp;Humidity;BMP_temperature;BMP_pressure;BME280_temperature;BME280_humidity;BME280_pressure;Samples;Min_cycle;Max_cycle;Signal;HPM_P1;HPM_P2
2022/12/24 00:02:11;;;;;;;;;;;;;;;10.56;100.00;96315.50;4980377;28;20011;-68
2022/12/24 00:04:36;;;;;;;;;;;;;;;10.52;100.00;96315.47;4979771;28;19914;-69
2022/12/24 00:07:02;;;;;;;;;;;;;;;10.52;100.00;96311.94;4961701;28;19914;-70
2022/12/24 00:09:27;;;;;;;;;;;;;;;10.51;100.00;96311.16;4963096;28;20017;-69
2022/12/24 00:11:53;;;;;;;;;;;;;;;10.52;100.00;96315.47;4965407;28;19933;-69
2022/12/24 00:14:18;;;;;;;;;;;;;;;10.51;100.00;96307.63;4958871;28;19921;-67
2022/12/24 00:16:43;;;;;;;;;;;;;;;10.49;100.00;96310.72;4965603;28;19972;-69
2022/12/24 00:19:09;;;;;;;;;;;;;;;10.47;100.00;96315.78;4960152;28;19918;-68
2022/12/24 00:21:34;;;;;;;;;;;;;;;10.42;100.00;96324.34;4965602;28;20070;-68
2022/12/24 00:24:02;;;;;;;;;;;;;;;10.41;100.00;96333.72;4975550;28;19918;-68
2022/12/24 00:26:28;;;;;;;;;;;;;;;10.44;100.00;96351.34;4980656;28;19914;-67
2022/12/24 00:28:53;;;;;;;;;;;;;;;10.48;100.00;96354.94;4984164;28;19913;-67
2022/12/24 00:31:18;;;;;;;;;;;;;;;10.48;100.00;96349.47;4979418;28;19920;-68
2022/12/24 00:33:44;;;;;;;;;;;;;;;10.51;100.00;96340.47;4984622;28;19914;-68
2022/12/24 00:36:09;;;;;;;;;;;;;;;10.50;100.00;96342.44;4976341;28;19937;-67
2022/12/24 00:38:34;;;;;;;;;;;;;;;10.49;100.00;96340.06;5015420;28;19932;-69
2022/12/24 00:41:00;;;;;;;;;;;;;;;10.46;100.00;96357.22;4984288;28;19934;-67
2022/12/24 00:43:26;;;;;;;;;;;;;;;10.47;100.00;96345.91;4979209;28;19913;-67
2022/12/24 00:45:52;;;;;;;;;;;;;;;10.41;100.00;96363.84;4983263;28;20454;-67
2022/12/24 00:48:17;;;;;;;;;;;;;;;10.30;100.00;96358.22;4976391;28;20000;-68
2022/12/24 00:50:42;;;;;;;;;;;;;;;10.30;100.00;96355.47;4984360;28;19996;-69
2022/12/24 00:53:08;;;;;;;;;;;;;;;10.28;100.00;96363.28;4979011;28;19913;-69
2022/12/24 00:55:33;;;;;;;;;;;;;;;10.43;100.00;96349.78;4982790;28;19920;-68
2022/12/24 00:57:58;;;;;;;;;;;;;;;10.49;100.00;96353.75;4983706;28;19969;-67
2022/12/24 01:00:24;;;;;;;;;;;;;;;10.47;100.00;96356.09;4979281;28;19961;-68
2022/12/24 01:02:49;;;;;;;;;;;;;;;10.60;100.00;96360.13;4984117;28;19960;-68
2022/12/24 01:05:14;;;;;;;;;;;;;;;10.55;100.00;96365.94;4980461;28;19913;-68
2022/12/24 01:07:43;;;;;;;;;;;;;;;10.66;100.00;96372.34;4965596;28;19977;-68
2022/12/24 01:10:09;;;;;;;;;;;;;;;10.62;100.00;96379.72;4968994;28;19917;-69
2022/12/24 01:12:35;;;;;;;;;;;;;;;10.45;100.00;96377.56;4980753;28;19956;-69
2022/12/24 01:15:00;;;;;;;;;;;;;;;10.29;100.00;96399.63;4964859;28;19953;-68
2022/12/24 01:17:26;;;;;;;;;;;;;;;10.18;100.00;96404.19;4972729;28;19979;-69
2022/12/24 01:19:51;;;;;;;;;;;;;;;10.23;100.00;96410.13;4983483;28;19972;-69
2022/12/24 01:22:16;;;;;;;;;;;;;;;10.12;100.00;96414.69;4983086;28;19925;-68
2022/12/24 01:24:41;;;;;;;;;;;;;;;10.26;100.00;96414.88;4977453;28;19953;-68
2022/12/24 01:27:07;;;;;;;;;;;;;;;10.27;100.00;96424.66;4964633;28;19921;-68
2022/12/24 01:29:32;;;;;;;;;;;;;;;10.22;100.00;96424.97;4968691;28;19914;-69
2022/12/24 01:31:57;;;;;;;;;;;;;;;10.18;100.00;96434.31;4964966;28;20069;-69
2022/12/24 01:34:23;;;;;;;;;;;;;;;10.23;100.00;96434.75;4959392;28;20514;-68
2022/12/24 01:36:48;;;;;;;;;;;;;;;10.21;100.00;96442.56;4962933;28;19914;-67
2022/12/24 01:39:13;;;;;;;;;;;;;;;10.17;100.00;96443.66;4957174;28;20019;-68
2022/12/24 01:44:27;;;;;;;;;;;;;;;10.11;100.00;96433.03;4959014;28;20362;-68
2022/12/24 01:47:13;;;;;;;;;;;;;;;10.13;100.00;96433.44;4962416;28;19921;-68
2022/12/24 01:49:41;;;;;;;;;;;;;;;10.16;100.00;96437.41;4956230;28;19921;-68
2022/12/24 01:52:17;;;;;;;;;;;;;;;10.27;100.00;96437.56;4954626;28;19917;-68
2022/12/24 01:54:48;;;;;;;;;;;;;;;10.23;100.00;96440.25;4962580;28;20290;-68
2022/12/24 01:57:22;;;;;;;;;;;;;;;10.20;100.00;96432.75;4964331;28;19918;-70
2022/12/24 01:59:49;;;;;;;;;;;;;;;10.22;100.00;96444.13;4983304;28;20008;-69
2022/12/24 02:02:15;;;;;;;;;;;;;;;10.21;100.00;96442.56;4978665;28;19914;-69
2022/12/24 02:04:54;;;;;;;;;;;;;;;10.17;100.00;96449.91;4984071;28;19937;-68
2022/12/24 02:07:20;;;;;;;;;;;;;;;10.20;100.00;96451.13;4975427;28;19920;-69
2022/12/24 02:09:46;;;;;;;;;;;;;;;10.26;100.00;96453.19;4981260;28;19917;-68
2022/12/24 02:12:11;;;;;;;;;;;;;;;10.28;100.00;96453.59;4977086;28;20284;-68
2022/12/24 02:14:37;;;;;;;;;;;;;;;10.23;100.00;96450.41;4981400;28;19972;-69
2022/12/24 02:17:41;;;;;;;;;;;;;;;10.26;100.00;96439.50;4980114;28;19914;-69
2022/12/24 02:20:16;;;;;;;;;;;;;;;10.26;100.00;96444.16;4916982;29;19965;-68
2022/12/24 02:23:05;;;;;;;;;;;;;;;10.20;100.00;96445.66;4922448;29;20005;-68
2022/12/24 02:25:30;;;;;;;;;;;;;;;10.26;100.00;96450.47;4948691;28;20060;-67
2022/12/24 02:28:04;;;;;;;;;;;;;;;10.27;100.00;96438.34;4963832;28;20012;-69
2022/12/24 02:30:51;;;;;;;;;;;;;;;10.31;100.00;96455.63;4961145;28;20020;-69
2022/12/24 02:33:25;;;;;;;;;;;;;;;10.24;100.00;96463.69;4957671;28;19914;-69
2022/12/24 02:35:53;;;;;;;;;;;;;;;10.16;100.00;96477.69;4962079;28;20009;-68
2022/12/24 02:38:23;;;;;;;;;;;;;;;10.14;100.00;96465.13;4954031;28;19918;-68
2022/12/24 02:40:51;;;;;;;;;;;;;;;10.18;100.00;96478.88;4962282;28;20300;-67
2022/12/24 02:43:19;;;;;;;;;;;;;;;10.19;100.00;96487.88;4956016;28;19914;-69
2022/12/24 02:45:48;;;;;;;;;;;;;;;10.17;100.00;96480.03;4962238;28;19972;-69
2022/12/24 02:48:15;;;;;;;;;;;;;;;10.20;100.00;96478.50;4957972;28;19922;-70
2022/12/24 02:50:52;;;;;;;;;;;;;;;10.20;100.00;96486.72;4963302;28;19924;-67
2022/12/24 02:53:18;;;;;;;;;;;;;;;10.16;100.00;96480.41;4967456;28;20593;-69
2022/12/24 02:55:51;;;;;;;;;;;;;;;10.17;100.00;96485.50;4966886;28;19918;-69
2022/12/24 02:58:16;;;;;;;;;;;;;;;10.14;100.00;96497.97;4971410;28;19920;-69
2022/12/24 03:00:44;;;;;;;;;;;;;;;10.09;100.00;96492.81;4982260;28;19922;-69
2022/12/24 03:03:30;;;;;;;;;;;;;;;10.10;100.00;96488.94;4976686;28;20668;-69
2022/12/24 03:06:11;;;;;;;;;;;;;;;10.06;100.00;96481.81;4980829;28;20389;-70
2022/12/24 03:08:42;;;;;;;;;;;;;;;10.16;100.00;96486.66;4981383;28;20438;-70
2022/12/24 03:11:09;;;;;;;;;;;;;;;10.08;100.00;96491.25;4976466;28;19925;-68
2022/12/24 03:13:35;;;;;;;;;;;;;;;10.12;100.00;96489.34;4981290;28;19917;-68
2022/12/24 03:16:03;;;;;;;;;;;;;;;10.11;100.00;96489.72;4980517;28;20409;-68
2022/12/24 03:18:29;;;;;;;;;;;;;;;10.07;100.00;96477.94;4987989;28;19914;-69
2022/12/24 03:20:57;;;;;;;;;;;;;;;10.03;100.00;96480.63;4988096;28;19925;-69
2022/12/24 03:23:23;;;;;;;;;;;;;;;10.02;100.00;96489.19;4992051;28;19953;-67
2022/12/24 03:25:48;;;;;;;;;;;;;;;10.01;100.00;96498.53;4979724;28;19949;-67
2022/12/24 03:28:15;;;;;;;;;;;;;;;9.97;100.00;96494.97;4976597;28;19961;-70
2022/12/24 03:30:41;;;;;;;;;;;;;;;9.94;100.00;96489.09;4981118;28;19918;-69
2022/12/24 03:33:06;;;;;;;;;;;;;;;9.96;100.00;96488.72;4974855;28;19917;-68
2022/12/24 03:35:32;;;;;;;;;;;;;;;9.92;100.00;96485.94;4979709;28;20230;-70
2022/12/24 03:37:57;;;;;;;;;;;;;;;9.98;100.00;96500.09;4981876;28;19914;-70
2022/12/24 03:40:22;;;;;;;;;;;;;;;10.02;100.00;96502.88;4973864;28;19922;-70
2022/12/24 03:42:48;;;;;;;;;;;;;;;9.99;100.00;96517.28;4981515;28;20015;-70
2022/12/24 03:45:13;;;;;;;;;;;;;;;9.98;100.00;96519.22;4973099;28;20282;-70
2022/12/24 03:47:38;;;;;;;;;;;;;;;9.93;100.00;96535.94;4978847;28;20411;-68
2022/12/24 03:50:04;;;;;;;;;;;;;;;9.91;100.00;96532.81;4977023;28;19914;-71
2022/12/24 03:52:30;;;;;;;;;;;;;;;10.02;100.00;96527.50;4991443;28;19914;-69
2022/12/24 03:54:55;;;;;;;;;;;;;;;10.19;100.00;96528.91;4991484;28;19925;-69
2022/12/24 03:57:20;;;;;;;;;;;;;;;10.17;100.00;96536.72;4977469;28;21302;-69
2022/12/24 03:59:45;;;;;;;;;;;;;;;10.11;100.00;96531.53;4979960;28;19973;-69
2022/12/24 04:02:11;;;;;;;;;;;;;;;10.08;100.00;96528.75;4978664;28;19968;-68
2022/12/24 04:04:36;;;;;;;;;;;;;;;10.08;100.00;96526.81;4979788;28;19925;-70
2022/12/24 04:07:02;;;;;;;;;;;;;;;10.07;100.00;96522.50;4966768;28;20304;-71
2022/12/24 04:09:27;;;;;;;;;;;;;;;10.20;100.00;96509.41;4959309;28;19918;-69
2022/12/24 04:11:53;;;;;;;;;;;;;;;10.19;100.00;96527.00;4964000;28;19914;-70
2022/12/24 04:14:18;;;;;;;;;;;;;;;10.10;100.00;96529.97;4958828;28;19920;-70
2022/12/24 04:16:43;;;;;;;;;;;;;;;10.05;100.00;96533.03;4964751;28;19988;-69
2022/12/24 04:19:09;;;;;;;;;;;;;;;10.02;100.00;96531.00;4959754;28;19925;-70
2022/12/24 04:21:34;;;;;;;;;;;;;;;10.09;100.00;96527.59;4964835;28;19914;-69
2022/12/24 04:23:59;;;;;;;;;;;;;;;10.08;100.00;96526.81;4974094;28;20370;-69
2022/12/24 04:26:25;;;;;;;;;;;;;;;10.10;100.00;96538.19;4978407;28;19913;-69
2022/12/24 04:28:50;;;;;;;;;;;;;;;10.04;100.00;96522.44;4984365;28;19921;-69
2022/12/24 04:31:16;;;;;;;;;;;;;;;10.13;100.00;96518.28;5009842;28;20291;-69
2022/12/24 04:33:41;;;;;;;;;;;;;;;10.07;100.00;96513.50;4984364;28;19996;-69
2022/12/24 04:36:07;;;;;;;;;;;;;;;10.19;100.00;96524.25;4978738;28;19914;-69
2022/12/24 04:38:33;;;;;;;;;;;;;;;10.16;100.00;96546.09;4982829;28;19953;-68
2022/12/24 04:41:03;;;;;;;;;;;;;;;10.14;100.00;96551.94;4984023;28;20058;-69
2022/12/24 04:43:29;;;;;;;;;;;;;;;10.14;100.00;96554.66;4983681;28;19918;-68
2022/12/24 04:45:54;;;;;;;;;;;;;;;10.07;100.00;96549.06;4983243;28;19920;-67
2022/12/24 04:48:19;;;;;;;;;;;;;;;10.03;100.00;96546.28;4979395;28;20310;-68
2022/12/24 04:50:45;;;;;;;;;;;;;;;9.98;100.00;96538.38;4984126;28;20499;-69
2022/12/24 04:53:10;;;;;;;;;;;;;;;9.91;100.00;96555.47;4977923;28;19988;-70
2022/12/24 04:55:35;;;;;;;;;;;;;;;9.91;100.00;96555.47;4982997;28;19949;-69
2022/12/24 04:58:00;;;;;;;;;;;;;;;9.89;100.00;96560.53;4983913;28;19925;-70
2022/12/24 05:00:26;;;;;;;;;;;;;;;9.90;100.00;96561.28;4977670;28;20016;-69
2022/12/24 05:02:51;;;;;;;;;;;;;;;9.88;100.00;96567.13;4981433;28;20296;-70
2022/12/24 05:05:16;;;;;;;;;;;;;;;9.84;100.00;96577.22;4974774;28;19958;-70
2022/12/24 05:07:42;;;;;;;;;;;;;;;9.94;100.00;96584.84;4974922;28;19920;-70
2022/12/24 05:10:07;;;;;;;;;;;;;;;9.83;100.00;96581.13;4966040;28;19921;-70
2022/12/24 05:12:33;;;;;;;;;;;;;;;9.77;100.00;96588.81;4983037;28;20302;-70
2022/12/24 05:14:58;;;;;;;;;;;;;;;9.79;100.00;96583.00;4982522;28;19914;-70
2022/12/24 05:17:23;;;;;;;;;;;;;;;9.68;100.00;96588.28;4971625;28;19910;-70
2022/12/24 05:19:49;;;;;;;;;;;;;;;9.69;100.00;96597.28;4964742;28;19918;-71
2022/12/24 05:27:42;;;;;;;;;;;;;;;9.57;100.00;96584.56;4983147;28;19960;-69
2022/12/24 05:30:07;;;;;;;;;;;;;;;9.62;100.00;96594.44;4978453;28;19945;-69
2022/12/24 05:32:32;;;;;;;;;;;;;;;9.55;100.00;96600.53;4983568;28;19940;-69
2022/12/24 05:34:58;;;;;;;;;;;;;;;9.53;100.00;96603.63;5014613;28;19945;-69
2022/12/24 05:37:23;;;;;;;;;;;;;;;9.56;100.00;96607.56;4977548;28;20504;-70
2022/12/24 05:39:48;;;;;;;;;;;;;;;9.56;100.00;96602.94;4983760;28;20371;-70
2022/12/24 05:42:14;;;;;;;;;;;;;;;9.47;100.00;96594.16;4978297;28;20391;-70
2022/12/24 05:44:39;;;;;;;;;;;;;;;9.44;100.00;96599.56;4983596;28;19960;-69
2022/12/24 05:47:04;;;;;;;;;;;;;;;9.34;100.00;96596.25;4977426;28;19913;-69
2022/12/24 05:49:30;;;;;;;;;;;;;;;9.35;100.00;96597.84;4981445;28;19953;-67
2022/12/24 05:51:55;;;;;;;;;;;;;;;9.23;100.00;96600.72;4982214;28;19921;-69
2022/12/24 05:54:21;;;;;;;;;;;;;;;9.24;100.00;96605.03;4978052;28;19918;-69
2022/12/24 05:56:46;;;;;;;;;;;;;;;9.43;100.00;96615.16;4980622;28;19959;-70
2022/12/24 05:59:12;;;;;;;;;;;;;;;9.40;100.00;96617.81;4977062;28;19921;-69
2022/12/24 06:01:37;;;;;;;;;;;;;;;9.41;100.00;96606.53;4983099;28;20024;-70
2022/12/24 06:04:03;;;;;;;;;;;;;;;9.33;100.00;96623.97;4979712;28;19913;-71
2022/12/24 06:06:28;;;;;;;;;;;;;;;9.28;100.00;96633.22;4975960;28;20021;-69
2022/12/24 06:08:54;;;;;;;;;;;;;;;9.25;100.00;96636.66;4964696;28;19913;-71
2022/12/24 06:11:21;;;;;;;;;;;;;;;9.10;100.00;96632.06;4958014;28;19961;-70
2022/12/24 06:13:46;;;;;;;;;;;;;;;9.24;100.00;96640.56;4978898;28;19921;-71
2022/12/24 06:16:13;;;;;;;;;;;;;;;9.26;100.00;96646.47;4961978;28;19913;-71
2022/12/24 06:18:39;;;;;;;;;;;;;;;9.23;100.00;96647.16;4966238;28;19922;-69
2022/12/24 06:21:05;;;;;;;;;;;;;;;9.26;100.00;96640.22;4965225;28;19922;-72
2022/12/24 06:23:32;;;;;;;;;;;;;;;9.14;100.00;96649.31;4972610;28;20013;-71
2022/12/24 06:26:01;;;;;;;;;;;;;;;9.11;100.00;96661.78;4983200;28;19914;-70
2022/12/24 06:28:27;;;;;;;;;;;;;;;9.04;100.00;96655.34;4979092;28;19914;-69
2022/12/24 06:30:52;;;;;;;;;;;;;;;9.01;100.00;96661.53;4982149;28;19913;-70
2022/12/24 06:33:18;;;;;;;;;;;;;;;8.98;100.00;96655.66;4976618;28;20397;-69
2022/12/24 06:35:43;;;;;;;;;;;;;;;8.91;100.00;96651.94;4981312;28;19917;-70
2022/12/24 06:38:09;;;;;;;;;;;;;;;8.90;100.00;96659.34;4980061;28;19918;-70
2022/12/24 06:40:36;;;;;;;;;;;;;;;8.84;100.00;96668.19;4992392;28;19927;-70
2022/12/24 06:43:01;;;;;;;;;;;;;;;8.84;100.00;96660.78;4984799;28;19917;-70
2022/12/24 06:45:27;;;;;;;;;;;;;;;8.78;100.00;96684.03;4978814;28;20410;-70
2022/12/24 06:47:52;;;;;;;;;;;;;;;8.73;100.00;96676.13;4982476;28;19914;-69
2022/12/24 06:50:18;;;;;;;;;;;;;;;8.65;100.00;96668.94;4974650;28;20097;-69
2022/12/24 06:52:43;;;;;;;;;;;;;;;8.68;100.00;96674.47;4962609;28;19921;-69
2022/12/24 06:55:08;;;;;;;;;;;;;;;8.66;100.00;96667.75;4957419;28;19924;-69
2022/12/24 06:57:33;;;;;;;;;;;;;;;8.60;100.00;96672.72;4966026;28;19921;-69
2022/12/24 06:59:59;;;;;;;;;;;;;;;8.52;100.00;96671.75;4963362;28;19918;-69
2022/12/24 07:02:24;;;;;;;;;;;;;;;8.39;100.00;96668.31;4957831;28;20355;-68
2022/12/24 07:04:50;;;;;;;;;;;;;;;8.41;100.00;96671.47;4961529;28;20367;-69
2022/12/24 07:07:15;;;;;;;;;;;;;;;8.42;100.00;96664.88;4956939;28;20041;-69
2022/12/24 07:09:40;;;;;;;;;;;;;;;8.39;100.00;96671.03;4981728;28;20020;-69
2022/12/24 07:12:06;;;;;;;;;;;;;;;8.39;100.00;96668.31;4964525;28;19918;-69
2022/12/24 07:14:31;;;;;;;;;;;;;;;8.35;100.00;96661.16;4972681;28;19917;-71
2022/12/24 07:16:57;;;;;;;;;;;;;;;8.28;100.00;96666.44;4970313;28;19918;-68
2022/12/24 07:19:22;;;;;;;;;;;;;;;8.16;100.00;96683.72;4957056;28;19976;-69
2022/12/24 07:21:48;;;;;;;;;;;;;;;8.14;100.00;96680.50;4960299;28;19936;-69
2022/12/24 07:24:14;;;;;;;;;;;;;;;8.11;100.00;96684.75;4966264;28;19985;-70
2022/12/24 07:26:39;;;;;;;;;;;;;;;8.10;100.00;96685.09;4980703;28;20004;-69
2022/12/24 07:29:04;;;;;;;;;;;;;;;8.08;100.00;96685.44;4977493;28;19921;-70
2022/12/24 07:31:30;;;;;;;;;;;;;;;8.05;100.00;96697.06;4979193;28;19976;-69
2022/12/24 07:33:55;;;;;;;;;;;;;;;8.04;100.00;96696.25;4981183;28;19913;-69
2022/12/24 07:36:20;;;;;;;;;;;;;;;8.04;100.00;96701.72;4974044;28;19964;-69
2022/12/24 07:38:46;;;;;;;;;;;;;;;8.04;100.00;96706.38;4981105;28;19997;-70
2022/12/24 07:41:11;;;;;;;;;;;;;;;8.04;100.00;96704.44;4975471;28;20342;-69
2022/12/24 07:43:37;;;;;;;;;;;;;;;7.98;100.00;96722.22;4979971;28;20706;-70
2022/12/24 07:46:02;;;;;;;;;;;;;;;7.97;100.00;96725.28;4981822;28;19941;-70
2022/12/24 07:48:28;;;;;;;;;;;;;;;7.97;100.00;96730.75;4982190;28;19917;-68
2022/12/24 07:50:54;;;;;;;;;;;;;;;8.01;100.00;96731.63;4982326;28;19917;-69
2022/12/24 07:53:19;;;;;;;;;;;;;;;8.00;100.00;96730.84;4960638;28;19925;-70
2022/12/24 07:55:45;;;;;;;;;;;;;;;8.01;100.00;96735.16;4962209;28;20294;-69
2022/12/24 07:58:10;;;;;;;;;;;;;;;7.98;100.00;96732.34;4961938;28;20028;-68
2022/12/24 08:00:35;;;;;;;;;;;;;;;7.97;100.00;96736.97;4963957;28;19926;-68
2022/12/24 08:03:01;;;;;;;;;;;;;;;7.98;100.00;96746.75;4964029;28;20407;-71
2022/12/24 08:05:26;;;;;;;;;;;;;;;7.99;100.00;96742.88;4960065;28;20342;-70
2022/12/24 08:07:52;;;;;;;;;;;;;;;7.91;100.00;96726.69;4967386;28;19969;-69
2022/12/24 08:10:17;;;;;;;;;;;;;;;7.95;100.00;96725.63;4978308;28;19913;-70
2022/12/24 08:12:44;;;;;;;;;;;;;;;7.95;100.00;96727.56;4985792;28;19920;-69
2022/12/24 08:15:09;;;;;;;;;;;;;;;7.91;100.00;96732.94;4963803;28;20004;-67
2022/12/24 08:17:35;;;;;;;;;;;;;;;7.94;100.00;96739.63;4972204;28;19924;-68
2022/12/24 08:20:01;;;;;;;;;;;;;;;7.94;100.00;96747.78;4972575;28;20284;-69
2022/12/24 08:22:26;;;;;;;;;;;;;;;7.89;100.00;96750.81;4967835;28;19921;-69
2022/12/24 08:24:52;;;;;;;;;;;;;;;7.89;100.00;96757.03;4974446;28;19918;-71
2022/12/24 08:27:17;;;;;;;;;;;;;;;7.89;100.00;96764.44;4967712;28;20291;-70
2022/12/24 08:29:42;;;;;;;;;;;;;;;7.87;100.00;96756.59;4973406;28;19976;-71
2022/12/24 08:32:07;;;;;;;;;;;;;;;7.89;100.00;96765.22;4969428;28;19914;-71
2022/12/24 08:34:33;;;;;;;;;;;;;;;7.94;100.00;96773.16;5003098;28;19952;-70
2022/12/24 08:36:58;;;;;;;;;;;;;;;7.92;100.00;96772.69;4973362;28;19921;-71
2022/12/24 08:39:24;;;;;;;;;;;;;;;7.94;100.00;96770.44;4968085;28;20732;-72
2022/12/24 08:41:49;;;;;;;;;;;;;;;7.95;100.00;96774.72;4972552;28;19914;-72
2022/12/24 08:44:14;;;;;;;;;;;;;;;7.98;100.00;96775.97;4969413;28;20013;-70
2022/12/24 08:46:40;;;;;;;;;;;;;;;8.01;100.00;96775.25;4971009;28;20052;-70
2022/12/24 08:49:05;;;;;;;;;;;;;;;8.02;100.00;96772.19;4974141;28;19914;-69
2022/12/24 08:51:30;;;;;;;;;;;;;;;7.97;100.00;96782.56;4988573;28;19918;-72
2022/12/24 08:53:55;;;;;;;;;;;;;;;7.95;100.00;96791.09;4986158;28;19918;-72
2022/12/24 08:56:21;;;;;;;;;;;;;;;7.91;100.00;96784.75;4972672;28;19922;-72
2022/12/24 08:58:47;;;;;;;;;;;;;;;7.89;100.00;96786.25;5004969;28;20317;-71
2022/12/24 09:01:14;;;;;;;;;;;;;;;7.93;100.00;96793.38;4965078;28;20490;-71
2022/12/24 09:03:40;;;;;;;;;;;;;;;7.90;100.00;96791.34;4971666;28;20407;-71
2022/12/24 09:06:06;;;;;;;;;;;;;;;7.90;100.00;96791.34;4966558;28;20000;-71
2022/12/24 09:08:32;;;;;;;;;;;;;;;7.89;100.00;96795.22;4969976;28;20624;-69
2022/12/24 09:11:04;;;;;;;;;;;;;;;7.85;100.00;96808.75;4974419;28;19929;-70
2022/12/24 09:13:29;;;;;;;;;;;;;;;7.85;100.00;96805.25;4970107;28;19914;-69
2022/12/24 09:15:55;;;;;;;;;;;;;;;7.84;100.00;96803.63;4973720;28;19914;-71
2022/12/24 09:18:20;;;;;;;;;;;;;;;7.85;100.00;96795.13;4968603;28;20327;-70
2022/12/24 09:20:46;;;;;;;;;;;;;;;7.84;100.00;96792.72;4973839;28;19918;-72
2022/12/24 09:23:12;;;;;;;;;;;;;;;7.90;100.00;96802.25;4968081;28;19925;-69
2022/12/24 09:25:43;;;;;;;;;;;;;;;7.90;100.00;96804.97;4969291;28;19937;-74
2022/12/24 09:28:09;;;;;;;;;;;;;;;8.02;100.00;96802.19;4961893;28;20383;-66
2022/12/24 09:30:34;;;;;;;;;;;;;;;8.05;100.00;96803.47;4969981;28;19914;-70
2022/12/24 09:33:00;;;;;;;;;;;;;;;8.07;100.00;96808.53;4985038;28;20008;-69
2022/12/24 09:35:25;;;;;;;;;;;;;;;8.10;100.00;96807.84;4971884;28;19914;-72
2022/12/24 09:38:01;;;;;;;;;;;;;;;8.19;100.00;96811.22;4971221;28;20325;-71
2022/12/24 09:40:31;;;;;;;;;;;;;;;8.20;100.00;96815.53;4966832;28;19979;-70
2022/12/24 09:42:56;;;;;;;;;;;;;;;8.21;100.00;96823.38;4970037;28;20414;-70
2022/12/24 09:45:27;;;;;;;;;;;;;;;8.21;100.00;96822.56;4966863;28;19922;-71
2022/12/24 09:48:04;;;;;;;;;;;;;;;8.27;100.00;96820.41;4974069;28;19917;-71
2022/12/24 09:50:32;;;;;;;;;;;;;;;8.16;100.00;96822.84;4976043;28;19929;-71
2022/12/24 09:53:01;;;;;;;;;;;;;;;8.14;100.00;96814.19;4973369;28;19993;-72
2022/12/24 09:55:26;;;;;;;;;;;;;;;8.27;100.00;96817.69;4967422;28;20362;-71
2022/12/24 09:57:53;;;;;;;;;;;;;;;8.16;100.00;96823.63;4979844;28;19914;-71
2022/12/24 10:00:26;;;;;;;;;;;;;;;8.19;100.00;96820.22;4976240;28;20296;-70
2022/12/24 10:02:52;;;;;;;;;;;;;;;8.28;100.00;96825.50;4954397;28;19922;-70
2022/12/24 10:05:22;;;;;;;;;;;;;;;8.16;100.00;96826.38;4958597;28;19914;-70
2022/12/24 10:07:57;;;;;;;;;;;;;;;8.31;100.00;96821.28;4971764;28;20350;-70
2022/12/24 10:10:30;;;;;;;;;;;;;;;8.27;100.00;96818.47;4970470;28;20008;-71
2022/12/24 10:13:16;;;;;;;;;;;;;;;8.35;100.00;96824.91;4973163;28;19924;-71
2022/12/24 10:16:00;;;;;;;;;;;;;;;8.28;100.00;96828.22;4971403;28;20434;-70
2022/12/24 10:18:34;;;;;;;;;;;;;;;8.20;100.00;96837.38;4966490;28;19961;-69
2022/12/24 10:21:04;;;;;;;;;;;;;;;8.42;100.00;96839.56;4972429;28;19929;-70
2022/12/24 10:23:50;;;;;;;;;;;;;;;8.46;100.00;96828.72;4970799;28;19917;-69
2022/12/24 10:26:44;;;;;;;;;;;;;;;8.42;100.00;96836.84;4964844;28;20004;-70
2022/12/24 10:29:10;;;;;;;;;;;;;;;8.53;100.00;96839.84;4957299;28;19918;-70
2022/12/24 10:31:38;;;;;;;;;;;;;;;8.52;100.00;96845.69;4971344;28;20130;-70
2022/12/24 10:34:14;;;;;;;;;;;;;;;8.46;100.00;96836.13;4967155;28;19914;-67
2022/12/24 10:36:39;;;;;;;;;;;;;;;8.38;100.00;96841.38;4970654;28;19985;-71
2022/12/24 10:39:13;;;;;;;;;;;;;;;8.47;100.00;96845.94;4967050;28;20460;-64
2022/12/24 10:41:38;;;;;;;;;;;;;;;8.43;100.00;96843.09;4971991;28;20498;-71
2022/12/24 10:44:04;;;;;;;;;;;;;;;8.37;100.00;96841.72;4965363;28;19960;-67
2022/12/24 10:46:33;;;;;;;;;;;;;;;8.57;100.00;96843.47;4969848;28;19918;-70
2022/12/24 10:49:04;;;;;;;;;;;;;;;8.72;100.00;96846.59;4972608;28;19949;-70
2022/12/24 10:51:29;;;;;;;;;;;;;;;8.62;100.00;96842.41;4967648;28;19914;-71
2022/12/24 10:53:57;;;;;;;;;;;;;;;8.58;100.00;96836.06;4973218;28;19914;-71
2022/12/24 10:56:23;;;;;;;;;;;;;;;8.62;100.00;96826.03;4966792;28;20398;-70
2022/12/24 10:58:52;;;;;;;;;;;;;;;8.59;100.00;96824.03;4973573;28;20393;-71
2022/12/24 11:01:18;;;;;;;;;;;;;;;8.68;100.00;96830.09;4965108;28;19976;-69
2022/12/24 11:03:44;;;;;;;;;;;;;;;8.66;100.00;96834.31;4972421;28;19921;-69
2022/12/24 11:06:17;;;;;;;;;;;;;;;8.66;100.00;96837.06;4963005;28;20020;-68
2022/12/24 11:08:43;;;;;;;;;;;;;;;8.89;100.00;96832.56;4971572;28;19914;-73
2022/12/24 11:11:19;;;;;;;;;;;;;;;8.90;100.00;96830.66;4967453;28;20358;-69
2022/12/24 11:13:44;;;;;;;;;;;;;;;8.79;100.00;96828.44;4974228;28;19991;-70
2022/12/24 11:16:24;;;;;;;;;;;;;;;8.70;100.00;96833.28;4967068;28;20622;-67
2022/12/24 11:18:52;;;;;;;;;;;;;;;8.75;100.00;96834.94;4970317;28;19915;-70
2022/12/24 11:21:21;;;;;;;;;;;;;;;8.60;100.00;96831.06;4971468;28;19949;-68
2022/12/24 11:23:55;;;;;;;;;;;;;;;8.56;100.00;96833.69;4978811;28;19972;-70
2022/12/24 11:26:22;;;;;;;;;;;;;;;8.53;100.00;96837.13;4981233;28;20279;-70
2022/12/24 11:29:02;;;;;;;;;;;;;;;8.50;100.00;96840.56;4978938;28;20267;-68
2022/12/24 11:31:31;;;;;;;;;;;;;;;8.51;100.00;96830.44;4970013;28;19910;-67
2022/12/24 11:33:56;;;;;;;;;;;;;;;8.63;100.00;96837.78;4972981;28;19918;-66
2022/12/24 11:36:23;;;;;;;;;;;;;;;8.53;100.00;96842.56;4964039;28;20033;-67
2022/12/24 11:38:53;;;;;;;;;;;;;;;8.46;100.00;96842.38;4971927;28;20041;-67
2022/12/24 11:41:18;;;;;;;;;;;;;;;8.64;100.00;96842.84;4965059;28;19980;-67
2022/12/24 11:43:45;;;;;;;;;;;;;;;8.76;100.00;96842.78;4970930;28;20414;-67
2022/12/24 11:46:15;;;;;;;;;;;;;;;8.76;100.00;96845.53;4966871;28;19967;-67
2022/12/24 11:48:41;;;;;;;;;;;;;;;8.82;100.00;96845.25;4971469;28;19922;-67
2022/12/24 11:51:17;;;;;;;;;;;;;;;8.94;100.00;96845.19;4970465;28;20363;-67
2022/12/24 11:53:45;;;;;;;;;;;;;;;8.80;100.00;96846.41;4970507;28;20285;-67
2022/12/24 11:56:29;;;;;;;;;;;;;;;8.86;100.00;96849.69;4964466;28;19918;-68
2022/12/24 11:59:02;;;;;;;;;;;;;;;8.91;100.00;96837.69;4971024;28;19918;-68
2022/12/24 12:01:39;;;;;;;;;;;;;;;9.06;100.00;96833.38;4968452;28;19918;-68
2022/12/24 12:04:10;;;;;;;;;;;;;;;9.14;100.00;96838.66;4964524;28;19917;-67
2022/12/24 12:06:41;;;;;;;;;;;;;;;9.21;100.00;96837.25;4969444;28;19914;-67
2022/12/24 12:09:16;;;;;;;;;;;;;;;9.06;100.00;96836.13;4966327;28;19925;-66
2022/12/24 12:11:42;;;;;;;;;;;;;;;9.03;100.00;96823.94;4970751;28;19929;-67
2022/12/24 12:14:13;;;;;;;;;;;;;;;9.26;100.00;96826.06;4964439;28;20367;-67
2022/12/24 12:17:02;;;;;;;;;;;;;;;9.41;100.00;96822.47;4971588;28;19921;-66
2022/12/24 12:19:46;;;;;;;;;;;;;;;9.40;100.00;96820.91;4970016;28;19929;-67
2022/12/24 12:22:22;;;;;;;;;;;;;;;9.17;100.00;96824.28;4965624;28;19921;-71
2022/12/24 12:24:50;;;;;;;;;;;;;;;9.26;100.00;96821.38;4971663;28;19920;-70
2022/12/24 12:27:36;;;;;;;;;;;;;;;9.27;100.00;96822.16;4966616;28;19914;-71
2022/12/24 12:30:03;;;;;;;;;;;;;;;9.38;100.00;96823.19;4969123;28;19925;-71
2022/12/24 12:32:47;;;;;;;;;;;;;;;9.46;100.00;96821.44;4972109;28;19921;-71
2022/12/24 12:35:22;;;;;;;;;;;;;;;9.43;100.00;96827.59;4967664;28;19922;-70
2022/12/24 12:37:52;;;;;;;;;;;;;;;9.51;100.00;96811.00;5008172;28;19938;-72
2022/12/24 12:40:18;;;;;;;;;;;;;;;9.56;100.00;96816.19;4971438;28;20071;-70
2022/12/24 12:42:51;;;;;;;;;;;;;;;9.38;100.00;96810.34;4976414;28;19949;-71
2022/12/24 12:45:31;;;;;;;;;;;;;;;9.34;100.00;96812.16;4973854;28;19937;-71
2022/12/24 12:48:06;;;;;;;;;;;;;;;9.47;100.00;96806.59;4986084;28;19921;-71
2022/12/24 12:50:31;;;;;;;;;;;;;;;9.69;100.00;96805.16;4974774;28;19921;-70
2022/12/24 12:53:35;;;;;;;;;;;;;;;9.68;100.00;96804.31;4971760;28;19914;-70
2022/12/24 12:56:10;;;;;;;;;;;;;;;9.38;100.00;96809.50;4912034;29;20396;-73